Time;durP1;ratioP1;P1;durP2;ratioP2;P2;SDS_P1;SDS_P2;PMS_P1;PMS_P2;Temp;Humidity;BMP_temperature;BMP_pressure;BME280_temperature;BME280_humidity;BME280_pressure;Samples;Min_cycle;Max_cycle;Signal;HPM_P1;HPM_P2
2023/03/21 00:02:13;;;;;;;1.35;1.25;;;;;;;;;;5120672;28;20586;-59
2023/03/21 00:04:41;;;;;;;1.50;1.40;;;;;;;;;;5120418;28;20202;-59
2023/03/21 00:07:08;;;;;;;1.27;1.15;;;;;;;;;;5121085;28;20211;-59
2023/03/21 00:09:36;;;;;;;1.30;1.20;;;;;;;;;;5120716;28;20278;-59
2023/03/21 00:12:08;;;;;;;1.77;1.30;;;;;;;;;;5120668;28;20215;-59
2023/03/21 00:14:36;;;;;;;1.30;1.20;;;;;;;;;;5120995;28;20218;-59
2023/03/21 00:17:06;;;;;;;1.55;1.40;;;;;;;;;;5120229;28;20203;-59
2023/03/21 00:19:37;;;;;;;1.90;1.20;;;;;;;;;;5120476;28;20203;-59
2023/03/21 00:22:04;;;;;;;1.30;1.20;;;;;;;;;;5120123;28;20231;-59
2023/03/21 00:24:32;;;;;;;1.30;1.20;;;;;;;;;;5120048;28;20214;-60
2023/03/21 00:26:59;;;;;;;1.45;1.35;;;;;;;;;;5119436;28;20230;-59
2023/03/21 00:29:27;;;;;;;1.25;1.15;;;;;;;;;;5120386;28;20472;-59
2023/03/21 00:31:54;;;;;;;1.45;1.35;;;;;;;;;;5120653;28;20227;-59
2023/03/21 00:34:23;;;;;;;1.38;1.27;;;;;;;;;;5119921;28;20210;-59
2023/03/21 00:36:50;;;;;;;1.27;1.20;;;;;;;;;;5120428;28;20210;-59
2023/03/21 00:39:18;;;;;;;1.30;1.20;;;;;;;;;;5120268;28;20237;-59
2023/03/21 00:41:45;;;;;;;1.35;1.25;;;;;;;;;;5120038;28;20207;-59
2023/03/21 00:44:14;;;;;;;1.40;1.30;;;;;;;;;;5120123;28;20214;-59
2023/03/21 00:46:42;;;;;;;1.40;1.30;;;;;;;;;;5119858;28;20213;-59
2023/03/21 00:49:09;;;;;;;1.45;1.35;;;;;;;;;;5119408;28;20526;-59
2023/03/21 00:51:38;;;;;;;2.00;1.38;;;;;;;;;;5119619;28;20235;-59
2023/03/21 00:54:06;;;;;;;1.70;1.40;;;;;;;;;;5119513;28;20252;-59
2023/03/21 00:56:33;;;;;;;1.50;1.40;;;;;;;;;;5119951;28;20300;-59
2023/03/21 00:59:01;;;;;;;1.98;1.40;;;;;;;;;;5119977;28;20213;-59
2023/03/21 01:01:30;;;;;;;1.30;1.20;;;;;;;;;;5119737;28;20210;-59
2023/03/21 01:04:03;;;;;;;1.30;1.20;;;;;;;;;;5120206;28;20211;-59
2023/03/21 01:06:30;;;;;;;1.67;1.40;;;;;;;;;;5119781;28;20210;-59
2023/03/21 01:08:59;;;;;;;1.40;1.30;;;;;;;;;;5119663;28;20211;-59
2023/03/21 01:11:28;;;;;;;1.40;1.30;;;;;;;;;;5120015;28;20355;-59
2023/03/21 01:13:56;;;;;;;1.50;1.40;;;;;;;;;;5119697;28;20496;-59
2023/03/21 01:16:23;;;;;;;1.38;1.27;;;;;;;;;;5119749;28;20203;-59
2023/03/21 01:18:51;;;;;;;1.50;1.40;;;;;;;;;;5119764;28;20203;-59
2023/03/21 01:21:18;;;;;;;1.25;1.10;;;;;;;;;;5119318;28;20211;-59
2023/03/21 01:23:45;;;;;;;1.52;1.42;;;;;;;;;;5119409;28;20214;-59
2023/03/21 01:26:15;;;;;;;1.50;1.40;;;;;;;;;;5119086;28;20579;-59
2023/03/21 01:28:43;;;;;;;1.35;1.25;;;;;;;;;;5119543;28;20218;-59
2023/03/21 01:31:12;;;;;;;1.40;1.30;;;;;;;;;;5119359;28;20561;-59
2023/03/21 01:33:39;;;;;;;1.30;1.20;;;;;;;;;;5119259;28;20203;-59
2023/03/21 01:36:07;;;;;;;1.50;1.23;;;;;;;;;;5118926;28;20218;-59
2023/03/21 01:38:35;;;;;;;1.42;1.10;;;;;;;;;;5118910;28;20519;-59
2023/03/21 01:41:02;;;;;;;1.50;1.40;;;;;;;;;;5119188;28;20238;-59
2023/03/21 01:43:32;;;;;;;1.50;1.30;;;;;;;;;;5118801;28;20206;-59
2023/03/21 01:46:21;;;;;;;1.55;1.27;;;;;;;;;;5119311;28;20210;-59
2023/03/21 01:48:51;;;;;;;1.20;1.10;;;;;;;;;;5118803;28;20203;-59
2023/03/21 01:51:18;;;;;;;1.30;1.20;;;;;;;;;;5119033;28;20296;-59
2023/03/21 01:53:46;;;;;;;1.38;1.27;;;;;;;;;;5118506;28;20465;-59
2023/03/21 01:56:17;;;;;;;1.30;1.20;;;;;;;;;;5119130;28;20243;-59
2023/03/21 01:58:46;;;;;;;1.73;1.20;;;;;;;;;;5118948;28;20302;-59
2023/03/21 02:01:14;;;;;;;1.30;1.20;;;;;;;;;;5118832;28;20206;-59
2023/03/21 02:03:48;;;;;;;1.42;1.33;;;;;;;;;;5118582;28;20245;-59
2023/03/21 02:06:18;;;;;;;1.30;1.20;;;;;;;;;;5118697;28;20202;-59
2023/03/21 02:08:45;;;;;;;1.63;1.40;;;;;;;;;;5118551;28;20211;-59
2023/03/21 02:11:12;;;;;;;0.95;0.95;;;;;;;;;;5118219;28;20257;-59
2023/03/21 02:13:40;;;;;;;1.30;1.20;;;;;;;;;;5118798;28;20207;-59
2023/03/21 02:16:14;;;;;;;1.45;1.35;;;;;;;;;;5118327;28;20206;-59
2023/03/21 02:18:46;;;;;;;1.50;1.40;;;;;;;;;;5118440;28;20214;-59
2023/03/21 02:21:31;;;;;;;1.30;1.20;;;;;;;;;;5118124;28;20199;-59
2023/03/21 02:24:17;;;;;;;1.30;1.20;;;;;;;;;;5118167;28;20210;-59
2023/03/21 02:26:55;;;;;;;1.50;1.40;;;;;;;;;;5118280;28;20598;-59
2023/03/21 02:29:33;;;;;;;0.98;0.98;;;;;;;;;;5117854;28;20203;-59
2023/03/21 02:32:05;;;;;;;1.45;1.23;;;;;;;;;;5118176;28;20234;-59
2023/03/21 02:34:46;;;;;;;1.40;1.30;;;;;;;;;;5118232;28;20203;-59
2023/03/21 02:37:25;;;;;;;1.38;1.27;;;;;;;;;;5118039;28;20203;-59
2023/03/21 02:40:06;;;;;;;1.30;1.20;;;;;;;;;;5117992;28;20295;-59
2023/03/21 02:42:37;;;;;;;1.52;1.42;;;;;;;;;;5118341;28;20490;-59
2023/03/21 02:45:07;;;;;;;1.30;1.20;;;;;;;;;;5117820;28;20202;-59
2023/03/21 02:47:37;;;;;;;1.40;1.30;;;;;;;;;;5117627;28;20210;-59
2023/03/21 02:50:06;;;;;;;1.60;1.45;;;;;;;;;;5117678;28;20214;-59
2023/03/21 02:52:36;;;;;;;1.40;1.30;;;;;;;;;;5117357;28;20234;-59
2023/03/21 02:55:05;;;;;;;1.30;1.20;;;;;;;;;;5118137;28;20246;-59
2023/03/21 02:57:33;;;;;;;1.10;1.00;;;;;;;;;;5117822;28;20649;-59
2023/03/21 03:00:00;;;;;;;1.30;1.20;;;;;;;;;;5118053;28;20211;-59
2023/03/21 03:02:29;;;;;;;1.40;1.30;;;;;;;;;;5117636;28;20203;-59
2023/03/21 03:04:56;;;;;;;1.38;1.23;;;;;;;;;;5117559;28;20230;-59
2023/03/21 03:07:36;;;;;;;1.20;1.10;;;;;;;;;;5117982;28;20214;-59
2023/03/21 03:10:12;;;;;;;1.33;1.23;;;;;;;;;;5117718;28;20230;-59
2023/03/21 03:12:43;;;;;;;1.60;1.50;;;;;;;;;;5118115;28;20229;-59
2023/03/21 03:15:16;;;;;;;1.30;1.20;;;;;;;;;;5117531;28;20214;-59
2023/03/21 03:17:49;;;;;;;1.40;1.30;;;;;;;;;;5121794;28;20574;-59
2023/03/21 03:20:28;;;;;;;1.08;1.08;;;;;;;;;;5122046;28;20214;-59
2023/03/21 03:22:59;;;;;;;1.52;1.30;;;;;;;;;;5121658;28;20199;-59
2023/03/21 03:25:32;;;;;;;1.30;1.20;;;;;;;;;;5121612;28;20210;-59
2023/03/21 03:28:00;;;;;;;1.52;1.17;;;;;;;;;;5121682;28;20242;-59
2023/03/21 03:30:28;;;;;;;1.48;1.38;;;;;;;;;;5121579;28;20614;-59
2023/03/21 03:32:57;;;;;;;1.30;1.20;;;;;;;;;;5121207;28;20234;-59
2023/03/21 03:35:26;;;;;;;1.20;1.20;;;;;;;;;;5120895;28;20253;-59
2023/03/21 03:37:56;;;;;;;1.40;1.30;;;;;;;;;;5121434;28;20214;-59
2023/03/21 03:40:26;;;;;;;1.30;1.20;;;;;;;;;;5121470;28;20243;-59
2023/03/21 03:42:57;;;;;;;1.10;1.10;;;;;;;;;;5121295;28;20199;-59
2023/03/21 03:45:26;;;;;;;1.35;1.20;;;;;;;;;;5121530;28;20203;-59
2023/03/21 03:47:55;;;;;;;1.40;1.30;;;;;;;;;;5121542;28;20214;-59
2023/03/21 03:50:27;;;;;;;1.00;1.00;;;;;;;;;;5121112;28;20210;-59
2023/03/21 03:52:56;;;;;;;1.27;1.20;;;;;;;;;;5120872;28;20602;-59
2023/03/21 03:55:25;;;;;;;1.40;1.05;;;;;;;;;;5120797;28;20202;-59
2023/03/21 03:57:53;;;;;;;1.30;1.20;;;;;;;;;;5121253;28;20211;-59
2023/03/21 04:00:22;;;;;;;1.30;1.20;;;;;;;;;;5121533;28;20573;-59
2023/03/21 04:02:49;;;;;;;1.30;1.23;;;;;;;;;;5120868;28;20199;-59
2023/03/21 04:05:20;;;;;;;1.00;1.00;;;;;;;;;;5121168;28;20207;-59
2023/03/21 04:07:49;;;;;;;1.15;1.10;;;;;;;;;;5121460;28;20503;-59
2023/03/21 04:10:17;;;;;;;1.20;1.10;;;;;;;;;;5120953;28;20231;-59
2023/03/21 04:12:44;;;;;;;1.15;1.05;;;;;;;;;;5120904;28;20250;-59
2023/03/21 04:15:12;;;;;;;1.23;1.13;;;;;;;;;;5120729;28;20211;-60
2023/03/21 04:17:40;;;;;;;1.20;1.10;;;;;;;;;;5120662;28;20202;-59
2023/03/21 04:20:08;;;;;;;1.30;1.20;;;;;;;;;;5120835;28;20587;-59
2023/03/21 04:22:36;;;;;;;1.02;1.00;;;;;;;;;;5120514;28;20198;-59
2023/03/21 04:25:05;;;;;;;1.10;1.00;;;;;;;;;;5120904;28;20474;-59
2023/03/21 04:27:32;;;;;;;1.30;1.20;;;;;;;;;;5120258;28;20203;-59
2023/03/21 04:29:59;;;;;;;1.20;1.10;;;;;;;;;;5120804;28;20210;-59
2023/03/21 04:32:27;;;;;;;1.10;1.10;;;;;;;;;;5120071;28;20227;-59
2023/03/21 04:34:56;;;;;;;1.10;1.10;;;;;;;;;;5120276;28;20609;-59
2023/03/21 04:37:24;;;;;;;1.30;1.20;;;;;;;;;;5119886;28;20211;-59
2023/03/21 04:39:52;;;;;;;1.20;1.10;;;;;;;;;;5119734;28;20230;-59
2023/03/21 04:42:19;;;;;;;1.20;1.10;;;;;;;;;;5120477;28;20264;-59
2023/03/21 04:44:46;;;;;;;1.17;1.08;;;;;;;;;;5119653;28;20211;-59
2023/03/21 04:47:14;;;;;;;1.15;1.10;;;;;;;;;;5119745;28;20209;-59
2023/03/21 04:49:42;;;;;;;1.20;1.10;;;;;;;;;;5119932;28;20249;-59
2023/03/21 04:52:11;;;;;;;1.10;1.00;;;;;;;;;;5119026;28;20230;-59
2023/03/21 04:54:38;;;;;;;1.10;1.00;;;;;;;;;;5119222;28;20222;-59
2023/03/21 04:57:05;;;;;;;1.20;1.10;;;;;;;;;;5119132;28;20231;-59
2023/03/21 04:59:32;;;;;;;1.23;1.13;;;;;;;;;;5119180;28;20210;-59
2023/03/21 05:02:00;;;;;;;1.00;1.00;;;;;;;;;;5119428;28;20199;-59
2023/03/21 05:04:28;;;;;;;1.05;1.05;;;;;;;;;;5119426;28;20689;-59
2023/03/21 05:06:56;;;;;;;1.00;0.95;;;;;;;;;;5119009;28;20222;-59
2023/03/21 05:09:24;;;;;;;0.98;0.98;;;;;;;;;;5119017;28;20213;-59
2023/03/21 05:11:52;;;;;;;1.02;1.02;;;;;;;;;;5118834;28;20215;-59
2023/03/21 05:14:20;;;;;;;0.85;0.85;;;;;;;;;;5119095;28;20214;-59
2023/03/21 05:16:51;;;;;;;1.00;1.00;;;;;;;;;;5119529;28;20211;-59
2023/03/21 05:19:21;;;;;;;1.20;1.10;;;;;;;;;;5118982;28;20207;-59
2023/03/21 05:21:48;;;;;;;0.90;0.90;;;;;;;;;;5119008;28;20195;-59
2023/03/21 05:24:17;;;;;;;0.90;0.90;;;;;;;;;;5118759;28;20264;-59
2023/03/21 05:26:49;;;;;;;0.90;0.90;;;;;;;;;;5118177;28;20203;-59
2023/03/21 05:29:17;;;;;;;1.20;1.10;;;;;;;;;;5118613;28;20207;-59
2023/03/21 05:31:44;;;;;;;1.20;1.10;;;;;;;;;;5118735;28;20685;-59
2023/03/21 05:34:12;;;;;;;0.95;0.95;;;;;;;;;;5118693;28;20211;-59
2023/03/21 05:36:39;;;;;;;1.05;1.00;;;;;;;;;;5118158;28;20207;-59
2023/03/21 05:39:06;;;;;;;0.98;0.93;;;;;;;;;;5117752;28;20202;-59
2023/03/21 05:41:34;;;;;;;1.40;1.30;;;;;;;;;;5117174;28;20203;-59
2023/03/21 05:44:02;;;;;;;1.00;1.00;;;;;;;;;;5116413;28;20578;-59
2023/03/21 05:46:30;;;;;;;1.00;1.00;;;;;;;;;;5116567;28;20210;-59
2023/03/21 05:48:57;;;;;;;1.00;1.00;;;;;;;;;;5116882;28;20203;-59
2023/03/21 05:51:24;;;;;;;1.13;1.02;;;;;;;;;;5116581;28;20470;-59
2023/03/21 05:53:52;;;;;;;1.13;1.02;;;;;;;;;;5116930;28;20514;-59
2023/03/21 05:56:19;;;;;;;1.02;1.00;;;;;;;;;;5117076;28;20246;-59
2023/03/21 05:58:46;;;;;;;1.00;1.00;;;;;;;;;;5116875;28;20268;-59
2023/03/21 06:01:15;;;;;;;0.90;0.90;;;;;;;;;;5116190;28;20202;-59
2023/03/21 06:03:43;;;;;;;0.90;0.90;;;;;;;;;;5116070;28;20291;-59
2023/03/21 06:06:10;;;;;;;1.25;1.15;;;;;;;;;;5115490;28;20647;-59
2023/03/21 06:08:37;;;;;;;1.33;1.00;;;;;;;;;;5115644;28;20221;-59
2023/03/21 06:11:05;;;;;;;0.77;0.77;;;;;;;;;;5115429;28;20203;-59
2023/03/21 06:13:32;;;;;;;1.17;1.08;;;;;;;;;;5114606;28;20674;-59
2023/03/21 06:16:00;;;;;;;0.82;0.82;;;;;;;;;;5115067;28;20504;-59
2023/03/21 06:18:29;;;;;;;1.10;1.00;;;;;;;;;;5114935;28;20259;-59
2023/03/21 06:20:56;;;;;;;0.85;0.85;;;;;;;;;;5114769;28;20213;-59
2023/03/21 06:23:23;;;;;;;1.08;1.00;;;;;;;;;;5115376;28;20311;-59
2023/03/21 06:25:51;;;;;;;0.90;0.90;;;;;;;;;;5114941;28;20501;-59
2023/03/21 06:28:18;;;;;;;1.05;1.05;;;;;;;;;;5115384;28;20657;-59
2023/03/21 06:30:45;;;;;;;0.80;0.80;;;;;;;;;;5114833;28;20218;-59
2023/03/21 06:33:12;;;;;;;1.30;1.20;;;;;;;;;;5115355;28;20234;-59
2023/03/21 06:35:41;;;;;;;1.35;1.10;;;;;;;;;;5114989;28;20210;-59
2023/03/21 06:38:08;;;;;;;1.60;1.50;;;;;;;;;;5115242;28;20482;-59
2023/03/21 06:40:36;;;;;;;2.20;1.80;;;;;;;;;;5115083;28;20546;-59
2023/03/21 06:43:03;;;;;;;2.80;1.98;;;;;;;;;;5113391;28;20261;-59
2023/03/21 06:45:30;;;;;;;5.45;2.67;;;;;;;;;;5114327;28;20552;-59
2023/03/21 06:47:57;;;;;;;4.40;2.60;;;;;;;;;;5114431;28;20552;-59
2023/03/21 06:50:25;;;;;;;4.88;2.70;;;;;;;;;;5113759;28;20206;-59
2023/03/21 06:52:56;;;;;;;6.45;3.05;;;;;;;;;;5114706;28;20230;-59
2023/03/21 06:55:25;;;;;;;4.68;2.83;;;;;;;;;;5115010;28;20203;-59
2023/03/21 06:57:52;;;;;;;7.00;3.80;;;;;;;;;;5114522;28;20222;-59
2023/03/21 07:00:21;;;;;;;6.35;3.30;;;;;;;;;;5115314;28;20590;-59
2023/03/21 07:02:48;;;;;;;9.60;4.00;;;;;;;;;;5114233;28;20593;-59
2023/03/21 07:05:16;;;;;;;6.90;3.85;;;;;;;;;;5114829;28;20211;-59
2023/03/21 07:07:43;;;;;;;9.38;3.72;;;;;;;;;;5114724;28;20202;-59
2023/03/21 07:10:12;;;;;;;6.45;3.63;;;;;;;;;;5114601;28;20202;-59
2023/03/21 07:12:40;;;;;;;8.68;3.75;;;;;;;;;;5114887;28;20230;-59
2023/03/21 07:15:08;;;;;;;8.30;4.22;;;;;;;;;;5114696;28;20205;-59
2023/03/21 07:17:35;;;;;;;8.68;3.95;;;;;;;;;;5115945;28;20499;-59
2023/03/21 07:20:05;;;;;;;9.68;4.15;;;;;;;;;;5115105;28;20309;-59
2023/03/21 07:22:32;;;;;;;8.90;4.00;;;;;;;;;;5114711;28;20257;-59
2023/03/21 07:25:00;;;;;;;6.68;4.00;;;;;;;;;;5116271;28;20215;-59
2023/03/21 07:27:28;;;;;;;9.13;4.25;;;;;;;;;;5116146;28;20214;-59
2023/03/21 07:29:56;;;;;;;6.30;3.67;;;;;;;;;;5116291;28;20222;-59
2023/03/21 07:32:23;;;;;;;7.93;4.05;;;;;;;;;;5115385;28;20235;-59
2023/03/21 07:34:51;;;;;;;8.57;4.35;;;;;;;;;;5115231;28;20516;-59
2023/03/21 07:37:19;;;;;;;8.63;4.40;;;;;;;;;;5114780;28;20271;-59
2023/03/21 07:39:46;;;;;;;8.85;4.28;;;;;;;;;;5115122;28;20310;-59
2023/03/21 07:42:13;;;;;;;7.95;4.55;;;;;;;;;;5115522;28;20211;-59
2023/03/21 07:44:42;;;;;;;9.18;4.75;;;;;;;;;;5114811;28;20229;-59
2023/03/21 07:47:09;;;;;;;7.13;4.10;;;;;;;;;;5115337;28;20239;-59
2023/03/21 07:49:37;;;;;;;7.82;4.05;;;;;;;;;;5114828;28;20614;-59
2023/03/21 07:52:05;;;;;;;8.43;4.43;;;;;;;;;;5115075;28;20206;-59
2023/03/21 07:54:32;;;;;;;7.05;4.20;;;;;;;;;;5114324;28;20210;-59
2023/03/21 07:57:00;;;;;;;8.50;4.30;;;;;;;;;;5115153;28;20237;-59
2023/03/21 07:59:27;;;;;;;7.88;3.92;;;;;;;;;;5114733;28;20207;-59
2023/03/21 08:01:56;;;;;;;8.85;4.70;;;;;;;;;;5115211;28;20210;-59
2023/03/21 08:04:23;;;;;;;8.30;4.20;;;;;;;;;;5119264;28;20207;-59
2023/03/21 08:06:51;;;;;;;6.95;4.28;;;;;;;;;;5118940;28;20537;-59
2023/03/21 08:09:18;;;;;;;8.27;4.20;;;;;;;;;;5119328;28;20246;-59
2023/03/21 08:11:45;;;;;;;7.38;4.10;;;;;;;;;;5119150;28;20298;-59
2023/03/21 08:14:13;;;;;;;5.80;3.85;;;;;;;;;;5118111;28;20223;-59
2023/03/21 08:16:40;;;;;;;8.55;4.43;;;;;;;;;;5118588;28;20210;-59
2023/03/21 08:19:09;;;;;;;6.43;4.22;;;;;;;;;;5116906;28;20216;-59
2023/03/21 08:21:38;;;;;;;6.10;3.83;;;;;;;;;;5117690;28;20206;-59
2023/03/21 08:24:05;;;;;;;6.20;4.10;;;;;;;;;;5118297;28;20744;-59
2023/03/21 08:26:33;;;;;;;10.02;4.18;;;;;;;;;;5117445;28;20203;-59
2023/03/21 08:29:01;;;;;;;7.00;4.35;;;;;;;;;;5118085;28;20452;-59
2023/03/21 08:31:28;;;;;;;6.82;3.95;;;;;;;;;;5117947;28;20266;-59
2023/03/21 08:33:55;;;;;;;7.38;3.75;;;;;;;;;;5118195;28;20227;-59
2023/03/21 08:36:25;;;;;;;6.50;3.80;;;;;;;;;;5117182;28;20211;-59
2023/03/21 08:38:53;;;;;;;5.63;3.67;;;;;;;;;;5116719;28;20289;-59
2023/03/21 08:41:23;;;;;;;6.15;3.88;;;;;;;;;;5118065;28;20207;-59
2023/03/21 08:43:50;;;;;;;6.55;3.63;;;;;;;;;;5117592;28;20298;-59
2023/03/21 08:46:18;;;;;;;5.68;3.58;;;;;;;;;;5116603;28;20211;-59
2023/03/21 08:48:45;;;;;;;5.97;4.00;;;;;;;;;;5117048;28;20210;-59
2023/03/21 08:51:12;;;;;;;7.00;3.90;;;;;;;;;;5117479;28;20214;-59
2023/03/21 08:53:42;;;;;;;6.10;3.83;;;;;;;;;;5117279;28;20223;-59
2023/03/21 08:56:10;;;;;;;5.88;3.65;;;;;;;;;;5117685;28;20257;-59
2023/03/21 08:58:37;;;;;;;6.88;3.53;;;;;;;;;;5117310;28;20214;-59
2023/03/21 09:01:05;;;;;;;7.85;4.00;;;;;;;;;;5117131;28;20209;-59
2023/03/21 09:03:33;;;;;;;5.25;3.50;;;;;;;;;;5116810;28;20206;-59
2023/03/21 09:06:02;;;;;;;5.22;3.42;;;;;;;;;;5117163;28;20217;-59
2023/03/21 09:08:29;;;;;;;4.90;3.53;;;;;;;;;;5116450;28;20294;-59
2023/03/21 09:10:58;;;;;;;4.65;3.40;;;;;;;;;;5116774;28;20214;-59
2023/03/21 09:13:25;;;;;;;6.03;3.88;;;;;;;;;;5115909;28;20737;-59
2023/03/21 09:15:53;;;;;;;5.00;3.42;;;;;;;;;;5116717;28;20686;-59
2023/03/21 09:18:21;;;;;;;5.47;3.67;;;;;;;;;;5116827;28;20214;-59
2023/03/21 09:20:49;;;;;;;4.40;3.28;;;;;;;;;;5117182;28;20295;-59
2023/03/21 09:23:17;;;;;;;5.63;3.38;;;;;;;;;;5116591;28;20303;-59
2023/03/21 09:25:46;;;;;;;4.47;3.20;;;;;;;;;;5116120;28;20203;-59
2023/03/21 09:28:15;;;;;;;5.22;3.20;;;;;;;;;;5117118;28;20211;-59
2023/03/21 09:30:42;;;;;;;4.10;3.22;;;;;;;;;;5116758;28;20203;-59
2023/03/21 09:33:18;;;;;;;4.90;3.03;;;;;;;;;;5116691;28;20234;-60
2023/03/21 09:35:45;;;;;;;4.80;3.33;;;;;;;;;;5116813;28;20264;-59
2023/03/21 09:38:13;;;;;;;5.53;3.28;;;;;;;;;;5116853;28;20195;-59
2023/03/21 09:40:51;;;;;;;4.13;3.13;;;;;;;;;;5116887;28;20246;-59
2023/03/21 09:43:25;;;;;;;5.18;3.30;;;;;;;;;;5115923;28;20194;-59
2023/03/21 09:45:55;;;;;;;7.53;3.40;;;;;;;;;;5115985;28;20545;-59
2023/03/21 09:48:30;;;;;;;4.47;3.13;;;;;;;;;;5116488;28;20205;-59
2023/03/21 09:50:58;;;;;;;4.15;3.35;;;;;;;;;;5115259;28;20255;-59
2023/03/21 09:53:29;;;;;;;6.03;3.22;;;;;;;;;;5116114;28;20634;-59
2023/03/21 09:55:58;;;;;;;4.78;3.10;;;;;;;;;;5115336;28;20276;-59
2023/03/21 09:58:29;;;;;;;4.55;3.00;;;;;;;;;;5115650;28;20664;-59
2023/03/21 10:01:00;;;;;;;4.78;2.90;;;;;;;;;;5115835;28;20207;-59
2023/03/21 10:03:33;;;;;;;5.15;2.95;;;;;;;;;;5115730;28;20242;-59
2023/03/21 10:06:02;;;;;;;6.32;2.72;;;;;;;;;;5115318;28;20286;-59
2023/03/21 10:08:33;;;;;;;3.95;2.80;;;;;;;;;;5116124;28;20205;-59
2023/03/21 10:11:03;;;;;;;3.75;2.85;;;;;;;;;;5116026;28;20613;-59
2023/03/21 10:13:34;;;;;;;4.38;2.67;;;;;;;;;;5115419;28;20640;-59
2023/03/21 10:16:02;;;;;;;5.60;2.95;;;;;;;;;;5115969;28;20203;-60
2023/03/21 10:18:31;;;;;;;4.55;2.80;;;;;;;;;;5115909;28;20206;-60
2023/03/21 10:20:59;;;;;;;3.63;2.50;;;;;;;;;;5115872;28;20657;-59
2023/03/21 10:23:27;;;;;;;4.75;3.00;;;;;;;;;;5115868;28;20210;-59
2023/03/21 10:25:57;;;;;;;3.97;2.58;;;;;;;;;;5114606;28;20202;-59
2023/03/21 10:28:27;;;;;;;6.25;2.78;;;;;;;;;;5115501;28;20234;-60
2023/03/21 10:30:57;;;;;;;4.82;2.90;;;;;;;;;;5114266;28;20202;-59
2023/03/21 10:33:25;;;;;;;3.88;2.72;;;;;;;;;;5114682;28;20231;-59
2023/03/21 10:35:54;;;;;;;3.70;2.90;;;;;;;;;;5114342;28;20199;-59
2023/03/21 10:38:23;;;;;;;3.70;2.72;;;;;;;;;;5115142;28;20203;-59
2023/03/21 10:40:51;;;;;;;4.78;2.90;;;;;;;;;;5114984;28;20538;-59
2023/03/21 10:43:20;;;;;;;4.28;2.65;;;;;;;;;;5115320;28;20199;-59
2023/03/21 10:45:48;;;;;;;4.75;2.90;;;;;;;;;;5113754;28;20198;-59
2023/03/21 10:48:17;;;;;;;5.85;2.58;;;;;;;;;;5114122;28;20207;-59
2023/03/21 10:50:47;;;;;;;4.85;2.55;;;;;;;;;;5114970;28;20210;-59
2023/03/21 10:53:18;;;;;;;6.00;2.50;;;;;;;;;;5114022;28;20203;-59
2023/03/21 10:55:47;;;;;;;4.38;2.40;;;;;;;;;;5114276;28;20630;-59
2023/03/21 10:58:17;;;;;;;4.07;2.33;;;;;;;;;;5114299;28;20617;-59
2023/03/21 11:00:46;;;;;;;4.00;2.35;;;;;;;;;;5114153;28;20206;-59
2023/03/21 11:03:22;;;;;;;4.22;2.42;;;;;;;;;;5113545;28;20214;-59
2023/03/21 11:05:54;;;;;;;4.57;2.30;;;;;;;;;;5113548;28;20268;-60
2023/03/21 11:08:21;;;;;;;3.60;2.33;;;;;;;;;;5113375;28;20567;-59
2023/03/21 11:10:52;;;;;;;4.13;2.30;;;;;;;;;;5113407;28;20199;-60
2023/03/21 11:13:20;;;;;;;4.68;2.08;;;;;;;;;;5113878;28;20203;-60
2023/03/21 11:15:52;;;;;;;7.00;2.25;;;;;;;;;;5113857;28;20203;-60
2023/03/21 11:18:22;;;;;;;2.78;2.10;;;;;;;;;;5114749;28;20305;-60
2023/03/21 11:20:50;;;;;;;4.22;2.35;;;;;;;;;;5114064;28;20213;-60
2023/03/21 11:23:18;;;;;;;3.20;2.00;;;;;;;;;;5113406;28;20603;-60
2023/03/21 11:25:48;;;;;;;4.40;2.67;;;;;;;;;;5114220;28;20210;-60
2023/03/21 11:28:17;;;;;;;4.47;2.28;;;;;;;;;;5114338;28;20203;-60
2023/03/21 11:30:51;;;;;;;4.88;2.38;;;;;;;;;;5114024;28;20276;-60
2023/03/21 11:33:19;;;;;;;2.85;2.10;;;;;;;;;;5113415;28;20225;-60
2023/03/21 11:35:58;;;;;;;3.75;2.17;;;;;;;;;;5113902;28;20199;-60
2023/03/21 11:38:27;;;;;;;3.50;1.98;;;;;;;;;;5118048;28;20202;-60
2023/03/21 11:40:57;;;;;;;4.25;2.30;;;;;;;;;;5118174;28;20203;-60
2023/03/21 11:43:29;;;;;;;2.88;2.28;;;;;;;;;;5117621;28;20199;-60
2023/03/21 11:45:57;;;;;;;3.92;1.95;;;;;;;;;;5117483;28;20233;-65
2023/03/21 11:48:25;;;;;;;3.97;2.28;;;;;;;;;;5116888;28;20304;-60
2023/03/21 11:50:57;;;;;;;3.00;2.03;;;;;;;;;;5117791;28;20210;-60
2023/03/21 11:53:28;;;;;;;4.50;2.08;;;;;;;;;;5117228;28;20207;-60
2023/03/21 11:56:06;;;;;;;4.03;2.08;;;;;;;;;;5117313;28;20231;-60
2023/03/21 11:58:36;;;;;;;2.42;1.90;;;;;;;;;;5117768;28;20203;-60
2023/03/21 12:01:08;;;;;;;4.53;2.00;;;;;;;;;;5118387;28;20210;-60
2023/03/21 12:03:59;;;;;;;4.40;1.77;;;;;;;;;;5117794;28;20306;-60
2023/03/21 12:06:31;;;;;;;3.25;1.90;;;;;;;;;;5117754;28;20285;-60
2023/03/21 12:09:13;;;;;;;3.03;2.10;;;;;;;;;;5117587;28;20207;-59
2023/03/21 12:11:49;;;;;;;2.50;1.90;;;;;;;;;;5115596;28;20213;-59
2023/03/21 12:14:19;;;;;;;3.15;1.85;;;;;;;;;;5117309;28;20494;-59
2023/03/21 12:16:54;;;;;;;2.20;1.90;;;;;;;;;;5117653;28;20214;-59
2023/03/21 12:19:33;;;;;;;2.33;2.10;;;;;;;;;;5117052;28;20585;-60
2023/03/21 12:22:07;;;;;;;2.90;2.60;;;;;;;;;;5117650;28;20269;-60
2023/03/21 12:24:39;;;;;;;2.53;1.80;;;;;;;;;;5117076;28;20259;-60
2023/03/21 12:27:12;;;;;;;2.55;1.80;;;;;;;;;;5116654;28;20790;-60
2023/03/21 12:29:49;;;;;;;2.83;2.22;;;;;;;;;;5117359;28;20590;-60
2023/03/21 12:32:21;;;;;;;2.42;2.00;;;;;;;;;;5117243;28;20217;-60
2023/03/21 12:34:59;;;;;;;2.28;1.92;;;;;;;;;;5116133;28;20219;-60
2023/03/21 12:37:33;;;;;;;3.03;2.00;;;;;;;;;;5116722;28;20301;-60
2023/03/21 12:40:06;;;;;;;2.90;1.80;;;;;;;;;;5117305;28;20546;-60
2023/03/21 12:42:51;;;;;;;2.40;1.90;;;;;;;;;;5117106;28;20217;-60
2023/03/21 12:45:21;;;;;;;3.40;1.90;;;;;;;;;;5117034;28;20633;-60
2023/03/21 12:47:50;;;;;;;2.88;1.60;;;;;;;;;;5115686;28;20210;-60
2023/03/21 12:50:21;;;;;;;1.83;1.67;;;;;;;;;;5115835;28;20206;-60
2023/03/21 12:52:52;;;;;;;2.90;1.90;;;;;;;;;;5114941;28;20210;-60
2023/03/21 12:55:22;;;;;;;2.38;1.70;;;;;;;;;;5115616;28;20719;-60
2023/03/21 12:57:50;;;;;;;2.38;1.80;;;;;;;;;;5115987;28;20259;-60
2023/03/21 13:00:20;;;;;;;1.80;1.65;;;;;;;;;;5116146;28;20203;-60
2023/03/21 13:02:51;;;;;;;2.13;1.80;;;;;;;;;;5116177;28;20214;-60
2023/03/21 13:05:19;;;;;;;1.90;1.80;;;;;;;;;;5116518;28;20210;-60
2023/03/21 13:07:49;;;;;;;2.13;1.92;;;;;;;;;;5116259;28;20199;-60
2023/03/21 13:10:20;;;;;;;1.75;1.58;;;;;;;;;;5116818;28;20226;-60
2023/03/21 13:12:59;;;;;;;1.95;1.63;;;;;;;;;;5116342;28;20603;-60
2023/03/21 13:15:33;;;;;;;2.80;1.88;;;;;;;;;;5114737;28;20218;-60
2023/03/21 13:18:05;;;;;;;2.22;1.60;;;;;;;;;;5115725;28;20559;-60
2023/03/21 13:20:36;;;;;;;1.55;1.40;;;;;;;;;;5115725;28;20215;-60
2023/03/21 13:23:05;;;;;;;3.15;1.42;;;;;;;;;;5116650;28;20606;-60
2023/03/21 13:25:34;;;;;;;2.15;1.80;;;;;;;;;;5115622;28;20665;-60
2023/03/21 13:28:03;;;;;;;2.47;1.42;;;;;;;;;;5115683;28;20203;-60
2023/03/21 13:30:31;;;;;;;2.05;1.60;;;;;;;;;;5115137;28;20210;-60
2023/03/21 13:33:05;;;;;;;1.95;1.38;;;;;;;;;;5115159;28;20211;-60
2023/03/21 13:35:36;;;;;;;2.38;1.60;;;;;;;;;;5115697;28;20225;-60
2023/03/21 13:38:05;;;;;;;2.33;1.55;;;;;;;;;;5114476;28;20418;-60
2023/03/21 13:40:39;;;;;;;1.83;1.50;;;;;;;;;;5114055;28;20213;-60
2023/03/21 13:43:26;;;;;;;1.52;1.30;;;;;;;;;;5114684;28;20737;-60
2023/03/21 13:45:54;;;;;;;1.80;1.30;;;;;;;;;;5115654;28;20199;-60
2023/03/21 13:48:28;;;;;;;2.75;1.40;;;;;;;;;;5115570;28;20215;-59
2023/03/21 13:51:00;;;;;;;1.42;1.15;;;;;;;;;;5115599;28;20205;-59
2023/03/21 13:53:32;;;;;;;1.50;1.30;;;;;;;;;;5114975;28;20207;-59
2023/03/21 13:56:23;;;;;;;1.90;1.30;;;;;;;;;;5115572;28;20237;-59
2023/03/21 13:58:53;;;;;;;1.30;1.20;;;;;;;;;;5094155;28;20207;-59
2023/03/21 14:01:25;;;;;;;2.05;1.48;;;;;;;;;;5114561;28;20681;-59
2023/03/21 14:03:59;;;;;;;1.83;1.30;;;;;;;;;;5115661;28;20203;-59
2023/03/21 14:06:31;;;;;;;2.33;1.40;;;;;;;;;;5115307;28;20253;-59
2023/03/21 14:08:59;;;;;;;1.58;1.38;;;;;;;;;;5115111;28;20595;-59
2023/03/21 14:11:30;;;;;;;2.03;1.38;;;;;;;;;;5093659;28;20230;-59
2023/03/21 14:13:59;;;;;;;2.38;1.30;;;;;;;;;;5094290;28;20218;-59
2023/03/21 14:16:28;;;;;;;1.70;1.20;;;;;;;;;;5094066;28;20235;-59
2023/03/21 14:18:57;;;;;;;1.42;1.33;;;;;;;;;;5093541;28;20298;-59
2023/03/21 14:21:25;;;;;;;2.65;1.40;;;;;;;;;;5093976;28;20203;-59
2023/03/21 14:23:57;;;;;;;1.77;1.42;;;;;;;;;;5093853;28;20210;-59
2023/03/21 14:26:24;;;;;;;2.25;1.20;;;;;;;;;;5094094;28;20291;-60
2023/03/21 14:28:52;;;;;;;1.65;1.23;;;;;;;;;;5093302;28;20268;-60
2023/03/21 14:31:21;;;;;;;1.67;1.30;;;;;;;;;;5094401;28;20373;-59
2023/03/21 14:33:52;;;;;;;1.42;1.33;;;;;;;;;;5094481;28;20234;-59
2023/03/21 14:36:21;;;;;;;1.40;1.30;;;;;;;;;;5094451;28;20278;-59
2023/03/21 14:38:55;;;;;;;1.23;1.10;;;;;;;;;;5094239;28;20615;-59
2023/03/21 14:41:23;;;;;;;1.38;1.20;;;;;;;;;;5095064;28;20203;-59
2023/03/21 14:44:15;;;;;;;1.40;1.20;;;;;;;;;;5094206;28;20583;-59
2023/03/21 14:46:44;;;;;;;1.35;1.10;;;;;;;;;;5094224;28;20196;-59
2023/03/21 14:49:13;;;;;;;1.20;1.10;;;;;;;;;;5092913;28;20214;-59
2023/03/21 14:51:41;;;;;;;1.48;1.20;;;;;;;;;;5094030;28;20699;-59
2023/03/21 14:54:10;;;;;;;1.50;1.00;;;;;;;;;;5094307;28;20751;-59
2023/03/21 14:56:38;;;;;;;1.30;1.17;;;;;;;;;;5093670;28;20243;-59
2023/03/21 14:59:08;;;;;;;1.20;1.10;;;;;;;;;;5093305;28;20498;-59